sensor_id;sensor_type;location;lat;lon;timestamp;temperature;humidity
59961;DHT22;55902;-37.980;-63.602;2023-05-14T00:01:52;15.90;86.40
59961;DHT22;55902;-37.980;-63.602;2023-05-14T00:04:19;15.90;86.60
59961;DHT22;55902;-37.980;-63.602;2023-05-14T00:06:46;15.90;86.10
59961;DHT22;55902;-37.980;-63.602;2023-05-14T00:09:13;15.80;86.30
59961;DHT22;55902;-37.980;-63.602;2023-05-14T00:11:40;15.80;86.00
59961;DHT22;55902;-37.980;-63.602;2023-05-14T00:14:07;15.80;84.20
59961;DHT22;55902;-37.980;-63.602;2023-05-14T00:16:34;15.70;84.80
59961;DHT22;55902;-37.980;-63.602;2023-05-14T00:19:01;15.60;85.00
59961;DHT22;55902;-37.980;-63.602;2023-05-14T00:21:28;15.60;85.70
59961;DHT22;55902;-37.980;-63.602;2023-05-14T00:23:57;15.50;87.00
59961;DHT22;55902;-37.980;-63.602;2023-05-14T00:26:24;15.50;85.60
59961;DHT22;55902;-37.980;-63.602;2023-05-14T00:28:51;15.50;84.60
59961;DHT22;55902;-37.980;-63.602;2023-05-14T00:31:18;15.50;85.40
59961;DHT22;55902;-37.980;-63.602;2023-05-14T00:33:44;15.40;85.70
59961;DHT22;55902;-37.980;-63.602;2023-05-14T00:36:11;15.40;84.50
59961;DHT22;55902;-37.980;-63.602;2023-05-14T00:38:38;15.40;86.60
59961;DHT22;55902;-37.980;-63.602;2023-05-14T00:41:05;15.30;87.40
59961;DHT22;55902;-37.980;-63.602;2023-05-14T00:43:33;15.30;86.50
59961;DHT22;55902;-37.980;-63.602;2023-05-14T00:46:00;15.20;86.90
59961;DHT22;55902;-37.980;-63.602;2023-05-14T00:48:27;15.20;86.00
59961;DHT22;55902;-37.980;-63.602;2023-05-14T00:50:54;15.20;85.40
59961;DHT22;55902;-37.980;-63.602;2023-05-14T00:53:21;15.20;84.00
59961;DHT22;55902;-37.980;-63.602;2023-05-14T00:55:49;15.10;87.10
59961;DHT22;55902;-37.980;-63.602;2023-05-14T00:58:17;15.10;86.40
59961;DHT22;55902;-37.980;-63.602;2023-05-14T01:00:44;15.00;87.30
59961;DHT22;55902;-37.980;-63.602;2023-05-14T01:07:08;15.00;85.10
59961;DHT22;55902;-37.980;-63.602;2023-05-14T01:15:14;14.90;86.90
59961;DHT22;55902;-37.980;-63.602;2023-05-14T01:17:53;14.80;87.10
59961;DHT22;55902;-37.980;-63.602;2023-05-14T01:20:24;14.70;88.10
59961;DHT22;55902;-37.980;-63.602;2023-05-14T01:22:51;14.70;88.50
59961;DHT22;55902;-37.980;-63.602;2023-05-14T01:25:18;14.60;86.70
59961;DHT22;55902;-37.980;-63.602;2023-05-14T01:33:19;14.50;87.50
59961;DHT22;55902;-37.980;-63.602;2023-05-14T01:35:47;14.50;88.70
59961;DHT22;55902;-37.980;-63.602;2023-05-14T01:38:17;14.50;89.20
59961;DHT22;55902;-37.980;-63.602;2023-05-14T01:40:45;14.40;87.30
59961;DHT22;55902;-37.980;-63.602;2023-05-14T01:43:14;14.40;88.70
59961;DHT22;55902;-37.980;-63.602;2023-05-14T01:45:42;14.30;89.10
59961;DHT22;55902;-37.980;-63.602;2023-05-14T01:48:09;14.30;89.70
59961;DHT22;55902;-37.980;-63.602;2023-05-14T01:50:36;14.30;89.00
59961;DHT22;55902;-37.980;-63.602;2023-05-14T01:53:03;14.20;88.60
59961;DHT22;55902;-37.980;-63.602;2023-05-14T01:55:30;14.20;90.00
59961;DHT22;55902;-37.980;-63.602;2023-05-14T02:08:02;14.10;89.80
59961;DHT22;55902;-37.980;-63.602;2023-05-14T02:10:29;14.10;90.00
59961;DHT22;55902;-37.980;-63.602;2023-05-14T02:12:56;14.10;87.90
59961;DHT22;55902;-37.980;-63.602;2023-05-14T02:15:23;14.10;89.20
59961;DHT22;55902;-37.980;-63.602;2023-05-14T02:17:50;14.10;88.60
59961;DHT22;55902;-37.980;-63.602;2023-05-14T02:20:17;14.00;88.00
59961;DHT22;55902;-37.980;-63.602;2023-05-14T02:22:44;14.00;90.10
59961;DHT22;55902;-37.980;-63.602;2023-05-14T02:25:11;14.00;87.50
59961;DHT22;55902;-37.980;-63.602;2023-05-14T02:27:38;14.00;88.60
59961;DHT22;55902;-37.980;-63.602;2023-05-14T02:30:06;14.00;89.60
59961;DHT22;55902;-37.980;-63.602;2023-05-14T02:32:33;14.00;89.60
59961;DHT22;55902;-37.980;-63.602;2023-05-14T02:35:00;13.90;90.20
59961;DHT22;55902;-37.980;-63.602;2023-05-14T02:37:27;13.80;90.00
59961;DHT22;55902;-37.980;-63.602;2023-05-14T02:39:54;13.80;90.70
59961;DHT22;55902;-37.980;-63.602;2023-05-14T02:42:21;13.70;90.60
59961;DHT22;55902;-37.980;-63.602;2023-05-14T02:44:48;13.70;90.70
59961;DHT22;55902;-37.980;-63.602;2023-05-14T02:47:15;13.60;91.30
59961;DHT22;55902;-37.980;-63.602;2023-05-14T02:49:42;13.50;91.20
59961;DHT22;55902;-37.980;-63.602;2023-05-14T02:52:09;13.50;91.30
59961;DHT22;55902;-37.980;-63.602;2023-05-14T02:54:36;13.40;91.50
59961;DHT22;55902;-37.980;-63.602;2023-05-14T02:57:03;13.40;91.50
59961;DHT22;55902;-37.980;-63.602;2023-05-14T02:59:30;13.30;91.40
59961;DHT22;55902;-37.980;-63.602;2023-05-14T03:01:57;13.30;91.30
59961;DHT22;55902;-37.980;-63.602;2023-05-14T03:04:24;13.30;91.00
59961;DHT22;55902;-37.980;-63.602;2023-05-14T03:06:51;13.30;91.50
59961;DHT22;55902;-37.980;-63.602;2023-05-14T03:09:18;13.20;92.20
59961;DHT22;55902;-37.980;-63.602;2023-05-14T03:11:45;13.10;92.00
59961;DHT22;55902;-37.980;-63.602;2023-05-14T03:14:12;13.10;92.40
59961;DHT22;55902;-37.980;-63.602;2023-05-14T03:16:39;13.00;92.50
59961;DHT22;55902;-37.980;-63.602;2023-05-14T03:19:07;12.90;92.70
59961;DHT22;55902;-37.980;-63.602;2023-05-14T03:21:35;12.90;93.00
59961;DHT22;55902;-37.980;-63.602;2023-05-14T03:24:02;12.80;93.10
59961;DHT22;55902;-37.980;-63.602;2023-05-14T03:26:29;12.80;93.00
59961;DHT22;55902;-37.980;-63.602;2023-05-14T03:28:58;12.80;92.90
59961;DHT22;55902;-37.980;-63.602;2023-05-14T03:31:25;12.80;92.90
59961;DHT22;55902;-37.980;-63.602;2023-05-14T03:33:52;12.80;92.90
59961;DHT22;55902;-37.980;-63.602;2023-05-14T03:36:19;12.80;92.60
59961;DHT22;55902;-37.980;-63.602;2023-05-14T03:38:47;12.80;92.00
59961;DHT22;55902;-37.980;-63.602;2023-05-14T03:41:14;12.80;91.60
59961;DHT22;55902;-37.980;-63.602;2023-05-14T03:43:41;12.80;91.90
59961;DHT22;55902;-37.980;-63.602;2023-05-14T03:46:08;12.80;92.70
59961;DHT22;55902;-37.980;-63.602;2023-05-14T03:48:35;12.80;92.50
59961;DHT22;55902;-37.980;-63.602;2023-05-14T03:51:01;12.70;92.80
59961;DHT22;55902;-37.980;-63.602;2023-05-14T03:53:28;12.70;92.70
59961;DHT22;55902;-37.980;-63.602;2023-05-14T03:55:55;12.70;93.00
59961;DHT22;55902;-37.980;-63.602;2023-05-14T03:58:22;12.70;93.30
59961;DHT22;55902;-37.980;-63.602;2023-05-14T04:00:49;12.60;93.70
59961;DHT22;55902;-37.980;-63.602;2023-05-14T04:03:16;12.60;93.50
59961;DHT22;55902;-37.980;-63.602;2023-05-14T04:05:43;12.60;92.80
59961;DHT22;55902;-37.980;-63.602;2023-05-14T04:08:11;12.60;93.20
59961;DHT22;55902;-37.980;-63.602;2023-05-14T04:10:38;12.60;93.50
59961;DHT22;55902;-37.980;-63.602;2023-05-14T04:13:05;12.50;93.30
59961;DHT22;55902;-37.980;-63.602;2023-05-14T04:15:32;12.50;92.70
59961;DHT22;55902;-37.980;-63.602;2023-05-14T04:18:01;12.50;92.80
59961;DHT22;55902;-37.980;-63.602;2023-05-14T04:23:50;12.40;93.70
59961;DHT22;55902;-37.980;-63.602;2023-05-14T04:26:17;12.30;93.40
59961;DHT22;55902;-37.980;-63.602;2023-05-14T04:28:43;12.30;93.00
59961;DHT22;55902;-37.980;-63.602;2023-05-14T04:31:11;12.20;92.90
59961;DHT22;55902;-37.980;-63.602;2023-05-14T04:33:38;12.20;92.80
59961;DHT22;55902;-37.980;-63.602;2023-05-14T04:36:05;12.20;93.00
59961;DHT22;55902;-37.980;-63.602;2023-05-14T04:38:32;12.20;93.30
59961;DHT22;55902;-37.980;-63.602;2023-05-14T04:40:59;12.10;93.40
59961;DHT22;55902;-37.980;-63.602;2023-05-14T04:43:27;12.10;93.20
59961;DHT22;55902;-37.980;-63.602;2023-05-14T04:45:54;12.10;93.60
59961;DHT22;55902;-37.980;-63.602;2023-05-14T04:48:21;12.00;93.70
59961;DHT22;55902;-37.980;-63.602;2023-05-14T04:50:48;12.00;93.00
59961;DHT22;55902;-37.980;-63.602;2023-05-14T04:53:15;11.90;93.60
59961;DHT22;55902;-37.980;-63.602;2023-05-14T04:55:42;12.00;93.00
59961;DHT22;55902;-37.980;-63.602;2023-05-14T04:58:09;11.90;93.20
59961;DHT22;55902;-37.980;-63.602;2023-05-14T05:00:36;11.80;93.90
59961;DHT22;55902;-37.980;-63.602;2023-05-14T05:03:03;11.80;93.70
59961;DHT22;55902;-37.980;-63.602;2023-05-14T05:05:30;11.70;93.60
59961;DHT22;55902;-37.980;-63.602;2023-05-14T05:07:57;11.70;94.00
59961;DHT22;55902;-37.980;-63.602;2023-05-14T05:10:24;11.60;94.90
59961;DHT22;55902;-37.980;-63.602;2023-05-14T05:12:54;11.60;94.10
59961;DHT22;55902;-37.980;-63.602;2023-05-14T05:15:21;11.60;94.10
59961;DHT22;55902;-37.980;-63.602;2023-05-14T05:17:48;11.60;93.90
59961;DHT22;55902;-37.980;-63.602;2023-05-14T05:20:15;11.60;94.30
59961;DHT22;55902;-37.980;-63.602;2023-05-14T05:22:42;11.60;93.90
59961;DHT22;55902;-37.980;-63.602;2023-05-14T05:25:10;11.50;93.50
59961;DHT22;55902;-37.980;-63.602;2023-05-14T05:27:38;11.50;94.10
59961;DHT22;55902;-37.980;-63.602;2023-05-14T05:30:05;11.50;93.40
59961;DHT22;55902;-37.980;-63.602;2023-05-14T05:32:33;11.50;93.20
59961;DHT22;55902;-37.980;-63.602;2023-05-14T05:35:01;11.50;92.90
59961;DHT22;55902;-37.980;-63.602;2023-05-14T05:37:29;11.40;92.40
59961;DHT22;55902;-37.980;-63.602;2023-05-14T05:39:56;11.50;92.50
59961;DHT22;55902;-37.980;-63.602;2023-05-14T05:42:23;11.50;92.00
59961;DHT22;55902;-37.980;-63.602;2023-05-14T05:44:51;11.50;92.10
59961;DHT22;55902;-37.980;-63.602;2023-05-14T05:47:18;11.50;92.00
59961;DHT22;55902;-37.980;-63.602;2023-05-14T05:49:45;11.50;92.60
59961;DHT22;55902;-37.980;-63.602;2023-05-14T05:52:12;11.40;92.40
59961;DHT22;55902;-37.980;-63.602;2023-05-14T05:54:39;11.50;92.40
59961;DHT22;55902;-37.980;-63.602;2023-05-14T05:57:06;11.40;92.70
59961;DHT22;55902;-37.980;-63.602;2023-05-14T05:59:33;11.40;92.50
59961;DHT22;55902;-37.980;-63.602;2023-05-14T06:02:00;11.40;92.90
59961;DHT22;55902;-37.980;-63.602;2023-05-14T06:04:27;11.40;93.60
59961;DHT22;55902;-37.980;-63.602;2023-05-14T06:06:54;11.30;93.70
59961;DHT22;55902;-37.980;-63.602;2023-05-14T06:09:21;11.30;93.20
59961;DHT22;55902;-37.980;-63.602;2023-05-14T06:11:48;11.30;93.20
59961;DHT22;55902;-37.980;-63.602;2023-05-14T06:14:15;11.30;94.30
59961;DHT22;55902;-37.980;-63.602;2023-05-14T06:16:42;11.30;93.50
59961;DHT22;55902;-37.980;-63.602;2023-05-14T06:19:09;11.20;93.60
59961;DHT22;55902;-37.980;-63.602;2023-05-14T06:21:36;11.20;94.40
59961;DHT22;55902;-37.980;-63.602;2023-05-14T06:24:03;11.20;94.60
59961;DHT22;55902;-37.980;-63.602;2023-05-14T06:26:30;11.10;94.90
59961;DHT22;55902;-37.980;-63.602;2023-05-14T06:28:57;11.00;94.90
59961;DHT22;55902;-37.980;-63.602;2023-05-14T06:31:24;11.00;94.50
59961;DHT22;55902;-37.980;-63.602;2023-05-14T06:33:51;11.00;93.90
59961;DHT22;55902;-37.980;-63.602;2023-05-14T06:36:18;10.90;94.00
59961;DHT22;55902;-37.980;-63.602;2023-05-14T06:38:45;10.90;93.90
59961;DHT22;55902;-37.980;-63.602;2023-05-14T06:41:12;10.80;93.90
59961;DHT22;55902;-37.980;-63.602;2023-05-14T06:43:39;10.70;94.00
59961;DHT22;55902;-37.980;-63.602;2023-05-14T06:46:06;10.70;93.80
59961;DHT22;55902;-37.980;-63.602;2023-05-14T06:48:33;10.60;94.60
59961;DHT22;55902;-37.980;-63.602;2023-05-14T06:51:00;10.60;95.50
59961;DHT22;55902;-37.980;-63.602;2023-05-14T06:53:28;10.50;96.00
59961;DHT22;55902;-37.980;-63.602;2023-05-14T06:55:55;10.50;95.50
59961;DHT22;55902;-37.980;-63.602;2023-05-14T06:58:22;10.40;96.00
59961;DHT22;55902;-37.980;-63.602;2023-05-14T07:00:49;10.40;95.30
59961;DHT22;55902;-37.980;-63.602;2023-05-14T07:03:16;10.30;95.90
59961;DHT22;55902;-37.980;-63.602;2023-05-14T07:05:43;10.30;95.60
59961;DHT22;55902;-37.980;-63.602;2023-05-14T07:08:11;10.20;96.30
59961;DHT22;55902;-37.980;-63.602;2023-05-14T07:10:39;10.20;96.00
59961;DHT22;55902;-37.980;-63.602;2023-05-14T07:13:06;10.10;95.90
59961;DHT22;55902;-37.980;-63.602;2023-05-14T07:15:33;10.10;96.00
59961;DHT22;55902;-37.980;-63.602;2023-05-14T07:18:00;10.10;96.10
59961;DHT22;55902;-37.980;-63.602;2023-05-14T07:20:27;10.10;96.20
59961;DHT22;55902;-37.980;-63.602;2023-05-14T07:22:54;10.00;96.90
59961;DHT22;55902;-37.980;-63.602;2023-05-14T07:25:24;10.00;97.50
59961;DHT22;55902;-37.980;-63.602;2023-05-14T07:27:51;9.90;97.90
59961;DHT22;55902;-37.980;-63.602;2023-05-14T07:30:18;10.00;98.00
59961;DHT22;55902;-37.980;-63.602;2023-05-14T07:32:45;9.90;98.50
59961;DHT22;55902;-37.980;-63.602;2023-05-14T07:35:12;9.90;97.60
59961;DHT22;55902;-37.980;-63.602;2023-05-14T07:41:21;9.90;97.40
59961;DHT22;55902;-37.980;-63.602;2023-05-14T07:51:34;9.90;97.20
59961;DHT22;55902;-37.980;-63.602;2023-05-14T07:54:01;9.90;97.30
59961;DHT22;55902;-37.980;-63.602;2023-05-14T07:56:28;9.90;97.00
59961;DHT22;55902;-37.980;-63.602;2023-05-14T07:58:55;9.90;97.90
59961;DHT22;55902;-37.980;-63.602;2023-05-14T08:01:22;9.90;98.60
59961;DHT22;55902;-37.980;-63.602;2023-05-14T08:03:49;9.80;98.20
59961;DHT22;55902;-37.980;-63.602;2023-05-14T08:06:16;9.80;97.80
59961;DHT22;55902;-37.980;-63.602;2023-05-14T08:08:43;9.80;98.20
59961;DHT22;55902;-37.980;-63.602;2023-05-14T08:11:10;9.70;98.20
59961;DHT22;55902;-37.980;-63.602;2023-05-14T08:13:37;9.70;97.90
59961;DHT22;55902;-37.980;-63.602;2023-05-14T08:16:04;9.70;97.60
59961;DHT22;55902;-37.980;-63.602;2023-05-14T08:18:31;9.70;97.50
59961;DHT22;55902;-37.980;-63.602;2023-05-14T08:20:58;9.80;97.40
59961;DHT22;55902;-37.980;-63.602;2023-05-14T08:23:25;9.80;97.60
59961;DHT22;55902;-37.980;-63.602;2023-05-14T08:25:52;9.80;97.60
59961;DHT22;55902;-37.980;-63.602;2023-05-14T08:28:19;9.80;97.90
59961;DHT22;55902;-37.980;-63.602;2023-05-14T08:30:46;9.70;97.60
59961;DHT22;55902;-37.980;-63.602;2023-05-14T08:33:13;9.70;97.30
59961;DHT22;55902;-37.980;-63.602;2023-05-14T08:35:40;9.70;97.40
59961;DHT22;55902;-37.980;-63.602;2023-05-14T08:38:07;9.60;98.10
59961;DHT22;55902;-37.980;-63.602;2023-05-14T08:40:34;9.70;98.00
59961;DHT22;55902;-37.980;-63.602;2023-05-14T08:43:01;9.60;97.50
59961;DHT22;55902;-37.980;-63.602;2023-05-14T08:45:30;9.60;97.40
59961;DHT22;55902;-37.980;-63.602;2023-05-14T08:47:59;9.60;97.30
59961;DHT22;55902;-37.980;-63.602;2023-05-14T08:50:27;9.60;98.30
59961;DHT22;55902;-37.980;-63.602;2023-05-14T08:52:55;9.60;98.40
59961;DHT22;55902;-37.980;-63.602;2023-05-14T08:55:22;9.50;97.90
59961;DHT22;55902;-37.980;-63.602;2023-05-14T08:57:51;9.50;98.00
59961;DHT22;55902;-37.980;-63.602;2023-05-14T09:00:18;9.40;98.10
59961;DHT22;55902;-37.980;-63.602;2023-05-14T09:02:46;9.30;98.50
59961;DHT22;55902;-37.980;-63.602;2023-05-14T09:05:14;9.20;98.10
59961;DHT22;55902;-37.980;-63.602;2023-05-14T09:07:42;9.20;97.70
59961;DHT22;55902;-37.980;-63.602;2023-05-14T09:10:10;9.10;98.50
59961;DHT22;55902;-37.980;-63.602;2023-05-14T09:15:53;9.00;97.90
59961;DHT22;55902;-37.980;-63.602;2023-05-14T09:18:21;9.00;97.40
59961;DHT22;55902;-37.980;-63.602;2023-05-14T09:20:48;9.00;97.20
59961;DHT22;55902;-37.980;-63.602;2023-05-14T09:23:15;9.00;97.90
59961;DHT22;55902;-37.980;-63.602;2023-05-14T09:25:42;9.00;98.70
59961;DHT22;55902;-37.980;-63.602;2023-05-14T09:28:09;9.00;98.30
59961;DHT22;55902;-37.980;-63.602;2023-05-14T09:30:36;9.00;98.30
59961;DHT22;55902;-37.980;-63.602;2023-05-14T09:33:03;9.00;98.20
59961;DHT22;55902;-37.980;-63.602;2023-05-14T09:35:31;9.00;98.10
59961;DHT22;55902;-37.980;-63.602;2023-05-14T09:37:58;9.10;97.80
59961;DHT22;55902;-37.980;-63.602;2023-05-14T09:40:25;9.10;97.80
59961;DHT22;55902;-37.980;-63.602;2023-05-14T09:42:52;9.20;98.20
59961;DHT22;55902;-37.980;-63.602;2023-05-14T09:45:19;9.20;98.00
59961;DHT22;55902;-37.980;-63.602;2023-05-14T09:47:46;9.20;97.90
59961;DHT22;55902;-37.980;-63.602;2023-05-14T09:50:13;9.20;98.30
59961;DHT22;55902;-37.980;-63.602;2023-05-14T09:52:41;9.30;98.10
59961;DHT22;55902;-37.980;-63.602;2023-05-14T09:55:08;9.20;98.20
59961;DHT22;55902;-37.980;-63.602;2023-05-14T09:57:35;9.20;98.80
59961;DHT22;55902;-37.980;-63.602;2023-05-14T10:00:02;9.20;99.10
59961;DHT22;55902;-37.980;-63.602;2023-05-14T10:02:36;9.20;98.80
59961;DHT22;55902;-37.980;-63.602;2023-05-14T10:05:06;9.20;98.70
59961;DHT22;55902;-37.980;-63.602;2023-05-14T10:07:39;9.20;98.60
59961;DHT22;55902;-37.980;-63.602;2023-05-14T10:10:12;9.10;98.50
59961;DHT22;55902;-37.980;-63.602;2023-05-14T10:12:41;9.10;98.60
59961;DHT22;55902;-37.980;-63.602;2023-05-14T10:18:38;9.00;98.60
59961;DHT22;55902;-37.980;-63.602;2023-05-14T10:21:06;9.10;98.50
59961;DHT22;55902;-37.980;-63.602;2023-05-14T10:23:35;9.10;98.50
59961;DHT22;55902;-37.980;-63.602;2023-05-14T10:26:04;9.10;98.70
59961;DHT22;55902;-37.980;-63.602;2023-05-14T10:28:32;9.10;99.30
59961;DHT22;55902;-37.980;-63.602;2023-05-14T10:30:59;9.10;99.50
59961;DHT22;55902;-37.980;-63.602;2023-05-14T10:33:26;9.20;99.50
59961;DHT22;55902;-37.980;-63.602;2023-05-14T10:36:00;9.20;99.80
59961;DHT22;55902;-37.980;-63.602;2023-05-14T10:38:35;9.20;99.60
59961;DHT22;55902;-37.980;-63.602;2023-05-14T10:41:09;9.30;99.90
59961;DHT22;55902;-37.980;-63.602;2023-05-14T10:43:40;9.40;99.90
59961;DHT22;55902;-37.980;-63.602;2023-05-14T10:46:09;9.40;99.90
59961;DHT22;55902;-37.980;-63.602;2023-05-14T10:48:43;9.50;99.90
59961;DHT22;55902;-37.980;-63.602;2023-05-14T10:51:11;9.60;99.90
59961;DHT22;55902;-37.980;-63.602;2023-05-14T10:53:42;9.60;99.90
59961;DHT22;55902;-37.980;-63.602;2023-05-14T10:56:11;9.60;99.90
59961;DHT22;55902;-37.980;-63.602;2023-05-14T10:58:43;9.70;99.90
59961;DHT22;55902;-37.980;-63.602;2023-05-14T11:01:12;9.70;99.90
59961;DHT22;55902;-37.980;-63.602;2023-05-14T11:03:43;9.70;99.90
59961;DHT22;55902;-37.980;-63.602;2023-05-14T11:06:14;9.70;99.90
59961;DHT22;55902;-37.980;-63.602;2023-05-14T11:08:41;9.80;99.90
59961;DHT22;55902;-37.980;-63.602;2023-05-14T11:11:09;9.80;99.90
59961;DHT22;55902;-37.980;-63.602;2023-05-14T11:13:37;9.80;99.90
59961;DHT22;55902;-37.980;-63.602;2023-05-14T11:16:04;9.90;99.90
59961;DHT22;55902;-37.980;-63.602;2023-05-14T11:18:33;9.90;99.90
59961;DHT22;55902;-37.980;-63.602;2023-05-14T11:21:04;9.90;99.90
59961;DHT22;55902;-37.980;-63.602;2023-05-14T11:23:30;10.00;99.70
59961;DHT22;55902;-37.980;-63.602;2023-05-14T11:25:58;10.10;99.90
59961;DHT22;55902;-37.980;-63.602;2023-05-14T11:28:26;10.10;99.80
59961;DHT22;55902;-37.980;-63.602;2023-05-14T11:30:53;10.10;99.30
59961;DHT22;55902;-37.980;-63.602;2023-05-14T11:33:20;10.10;99.30
59961;DHT22;55902;-37.980;-63.602;2023-05-14T11:35:48;10.20;99.80
59961;DHT22;55902;-37.980;-63.602;2023-05-14T11:38:15;10.20;99.40
59961;DHT22;55902;-37.980;-63.602;2023-05-14T11:43:19;10.40;99.10
59961;DHT22;55902;-37.980;-63.602;2023-05-14T11:45:53;10.40;98.90
59961;DHT22;55902;-37.980;-63.602;2023-05-14T11:48:21;10.50;98.90
59961;DHT22;55902;-37.980;-63.602;2023-05-14T11:50:50;10.60;98.80
59961;DHT22;55902;-37.980;-63.602;2023-05-14T11:53:28;10.60;98.70
59961;DHT22;55902;-37.980;-63.602;2023-05-14T11:55:55;10.70;98.70
59961;DHT22;55902;-37.980;-63.602;2023-05-14T11:58:25;10.80;98.60
59961;DHT22;55902;-37.980;-63.602;2023-05-14T12:00:53;10.90;98.30
59961;DHT22;55902;-37.980;-63.602;2023-05-14T12:03:21;10.90;98.00
59961;DHT22;55902;-37.980;-63.602;2023-05-14T12:06:01;11.00;97.80
59961;DHT22;55902;-37.980;-63.602;2023-05-14T12:08:32;11.10;97.60
59961;DHT22;55902;-37.980;-63.602;2023-05-14T12:11:00;11.20;97.60
59961;DHT22;55902;-37.980;-63.602;2023-05-14T12:13:31;11.30;98.20
59961;DHT22;55902;-37.980;-63.602;2023-05-14T12:15:59;11.40;98.10
59961;DHT22;55902;-37.980;-63.602;2023-05-14T12:18:29;11.60;97.90
59961;DHT22;55902;-37.980;-63.602;2023-05-14T12:21:02;11.70;97.70
59961;DHT22;55902;-37.980;-63.602;2023-05-14T12:23:30;12.00;97.80
59961;DHT22;55902;-37.980;-63.602;2023-05-14T12:26:08;12.20;97.60
59961;DHT22;55902;-37.980;-63.602;2023-05-14T12:28:38;12.50;97.40
59961;DHT22;55902;-37.980;-63.602;2023-05-14T12:31:08;12.60;97.10
59961;DHT22;55902;-37.980;-63.602;2023-05-14T12:33:35;12.80;96.90
59961;DHT22;55902;-37.980;-63.602;2023-05-14T12:36:02;12.90;96.70
59961;DHT22;55902;-37.980;-63.602;2023-05-14T12:38:31;13.00;96.60
59961;DHT22;55902;-37.980;-63.602;2023-05-14T12:40:58;13.10;96.40
59961;DHT22;55902;-37.980;-63.602;2023-05-14T12:43:25;13.40;96.50
59961;DHT22;55902;-37.980;-63.602;2023-05-14T12:45:56;13.70;96.60
59961;DHT22;55902;-37.980;-63.602;2023-05-14T12:48:23;14.30;96.70
59961;DHT22;55902;-37.980;-63.602;2023-05-14T12:50:50;15.00;96.30
59961;DHT22;55902;-37.980;-63.602;2023-05-14T12:53:17;15.80;95.50
59961;DHT22;55902;-37.980;-63.602;2023-05-14T12:55:44;16.40;95.40
59961;DHT22;55902;-37.980;-63.602;2023-05-14T12:58:11;17.00;95.00
59961;DHT22;55902;-37.980;-63.602;2023-05-14T13:00:38;17.40;93.80
59961;DHT22;55902;-37.980;-63.602;2023-05-14T13:03:05;17.60;93.30
59961;DHT22;55902;-37.980;-63.602;2023-05-14T13:05:32;17.90;93.20
59961;DHT22;55902;-37.980;-63.602;2023-05-14T13:08:00;18.20;91.10
59961;DHT22;55902;-37.980;-63.602;2023-05-14T13:10:33;18.50;91.20
59961;DHT22;55902;-37.980;-63.602;2023-05-14T13:13:00;19.00;91.80
59961;DHT22;55902;-37.980;-63.602;2023-05-14T13:15:28;19.40;91.60
59961;DHT22;55902;-37.980;-63.602;2023-05-14T13:17:56;19.90;91.00
59961;DHT22;55902;-37.980;-63.602;2023-05-14T13:20:23;20.30;89.30
59961;DHT22;55902;-37.980;-63.602;2023-05-14T13:22:52;20.80;89.00
59961;DHT22;55902;-37.980;-63.602;2023-05-14T13:25:19;21.10;85.20
59961;DHT22;55902;-37.980;-63.602;2023-05-14T13:27:46;21.50;87.10
59961;DHT22;55902;-37.980;-63.602;2023-05-14T13:30:17;21.90;88.30
59961;DHT22;55902;-37.980;-63.602;2023-05-14T13:32:44;22.30;84.10
59961;DHT22;55902;-37.980;-63.602;2023-05-14T13:35:12;22.40;79.30
59961;DHT22;55902;-37.980;-63.602;2023-05-14T13:37:39;22.40;84.50
59961;DHT22;55902;-37.980;-63.602;2023-05-14T13:40:06;22.50;83.70
59961;DHT22;55902;-37.980;-63.602;2023-05-14T13:42:34;22.60;85.40
59961;DHT22;55902;-37.980;-63.602;2023-05-14T13:45:01;22.80;80.20
59961;DHT22;55902;-37.980;-63.602;2023-05-14T13:47:29;23.00;82.40
59961;DHT22;55902;-37.980;-63.602;2023-05-14T13:49:56;23.40;82.00
59961;DHT22;55902;-37.980;-63.602;2023-05-14T13:52:23;23.70;83.50
59961;DHT22;55902;-37.980;-63.602;2023-05-14T13:54:51;24.00;73.30
59961;DHT22;55902;-37.980;-63.602;2023-05-14T13:57:19;24.10;78.50
59961;DHT22;55902;-37.980;-63.602;2023-05-14T13:59:47;24.30;76.40
59961;DHT22;55902;-37.980;-63.602;2023-05-14T14:02:14;24.60;76.60
59961;DHT22;55902;-37.980;-63.602;2023-05-14T14:04:41;25.00;74.50
59961;DHT22;55902;-37.980;-63.602;2023-05-14T14:07:08;25.20;71.30
59961;DHT22;55902;-37.980;-63.602;2023-05-14T14:09:35;25.50;76.10
59961;DHT22;55902;-37.980;-63.602;2023-05-14T14:12:05;25.70;76.80
59961;DHT22;55902;-37.980;-63.602;2023-05-14T14:14:32;25.90;66.40
59961;DHT22;55902;-37.980;-63.602;2023-05-14T14:23:45;26.80;74.40
59961;DHT22;55902;-37.980;-63.602;2023-05-14T14:26:12;27.30;73.80
59961;DHT22;55902;-37.980;-63.602;2023-05-14T14:28:39;27.60;71.90
59961;DHT22;55902;-37.980;-63.602;2023-05-14T14:31:06;28.00;72.90
59961;DHT22;55902;-37.980;-63.602;2023-05-14T14:33:33;28.30;66.40
59961;DHT22;55902;-37.980;-63.602;2023-05-14T14:36:00;28.60;69.50
59961;DHT22;55902;-37.980;-63.602;2023-05-14T14:38:27;28.80;68.80
59961;DHT22;55902;-37.980;-63.602;2023-05-14T14:40:54;28.90;68.20
59961;DHT22;55902;-37.980;-63.602;2023-05-14T14:43:21;29.00;67.70
59961;DHT22;55902;-37.980;-63.602;2023-05-14T14:45:48;29.10;66.40
59961;DHT22;55902;-37.980;-63.602;2023-05-14T14:50:50;29.40;66.90
59961;DHT22;55902;-37.980;-63.602;2023-05-14T14:53:19;29.60;63.90
59961;DHT22;55902;-37.980;-63.602;2023-05-14T14:55:47;29.70;61.10
59961;DHT22;55902;-37.980;-63.602;2023-05-14T14:58:14;29.70;60.20
59961;DHT22;55902;-37.980;-63.602;2023-05-14T15:00:41;29.90;61.00
59961;DHT22;55902;-37.980;-63.602;2023-05-14T15:09:52;30.60;59.70
59961;DHT22;55902;-37.980;-63.602;2023-05-14T15:12:20;30.70;60.10
59961;DHT22;55902;-37.980;-63.602;2023-05-14T15:14:47;31.00;59.90
59961;DHT22;55902;-37.980;-63.602;2023-05-14T15:17:14;31.30;60.70
59961;DHT22;55902;-37.980;-63.602;2023-05-14T15:19:41;31.40;58.80
59961;DHT22;55902;-37.980;-63.602;2023-05-14T15:22:08;31.40;60.20
59961;DHT22;55902;-37.980;-63.602;2023-05-14T15:24:35;31.40;59.60
59961;DHT22;55902;-37.980;-63.602;2023-05-14T15:27:03;31.30;59.60
59961;DHT22;55902;-37.980;-63.602;2023-05-14T15:29:30;31.40;59.60
59961;DHT22;55902;-37.980;-63.602;2023-05-14T15:31:58;31.70;59.10
59961;DHT22;55902;-37.980;-63.602;2023-05-14T15:34:25;32.00;56.60
59961;DHT22;55902;-37.980;-63.602;2023-05-14T15:36:52;31.80;57.40
59961;DHT22;55902;-37.980;-63.602;2023-05-14T15:39:19;31.50;56.10
59961;DHT22;55902;-37.980;-63.602;2023-05-14T15:41:46;30.90;57.70
59961;DHT22;55902;-37.980;-63.602;2023-05-14T15:44:13;30.40;57.90
59961;DHT22;55902;-37.980;-63.602;2023-05-14T15:46:40;30.20;57.30
59961;DHT22;55902;-37.980;-63.602;2023-05-14T15:49:07;30.30;58.30
59961;DHT22;55902;-37.980;-63.602;2023-05-14T15:51:34;30.50;56.80
59961;DHT22;55902;-37.980;-63.602;2023-05-14T15:54:01;30.80;55.90
59961;DHT22;55902;-37.980;-63.602;2023-05-14T15:56:29;31.10;55.30
59961;DHT22;55902;-37.980;-63.602;2023-05-14T15:58:56;31.50;56.20